sensor_id;sensor_type;location;lat;lon;timestamp;pressure;altitude;pressure_sealevel;temperature;humidity
47985;BME280;33753;52.912;-7.342;2022-08-01T00:01:19;100683.09;;;11.74;100.00
47985;BME280;33753;52.912;-7.342;2022-08-01T00:03:48;100684.16;;;11.65;100.00
47985;BME280;33753;52.912;-7.342;2022-08-01T00:06:22;100673.00;;;11.59;100.00
47985;BME280;33753;52.912;-7.342;2022-08-01T00:09:09;100671.34;;;11.50;100.00
47985;BME280;33753;52.912;-7.342;2022-08-01T00:11:52;100676.59;;;11.44;100.00
47985;BME280;33753;52.912;-7.342;2022-08-01T00:14:31;100682.69;;;11.37;100.00
47985;BME280;33753;52.912;-7.342;2022-08-01T00:17:05;100681.66;;;11.30;100.00
47985;BME280;33753;52.912;-7.342;2022-08-01T00:19:35;100675.75;;;11.27;100.00
47985;BME280;33753;52.912;-7.342;2022-08-01T00:22:03;100671.88;;;11.21;100.00
47985;BME280;33753;52.912;-7.342;2022-08-01T00:24:32;100678.81;;;11.15;100.00
47985;BME280;33753;52.912;-7.342;2022-08-01T00:27:00;100673.38;;;11.07;100.00
47985;BME280;33753;52.912;-7.342;2022-08-01T00:29:30;100680.16;;;11.03;100.00
47985;BME280;33753;52.912;-7.342;2022-08-01T00:32:18;100663.94;;;10.95;100.00
47985;BME280;33753;52.912;-7.342;2022-08-01T00:34:46;100659.19;;;10.88;100.00
47985;BME280;33753;52.912;-7.342;2022-08-01T00:37:15;100660.88;;;10.81;100.00
47985;BME280;33753;52.912;-7.342;2022-08-01T00:39:43;100658.66;;;10.77;100.00
47985;BME280;33753;52.912;-7.342;2022-08-01T00:42:11;100667.13;;;10.74;100.00
47985;BME280;33753;52.912;-7.342;2022-08-01T00:44:41;100656.66;;;10.70;100.00
47985;BME280;33753;52.912;-7.342;2022-08-01T00:47:09;100658.81;;;10.67;100.00
47985;BME280;33753;52.912;-7.342;2022-08-01T00:49:38;100651.06;;;10.64;100.00
47985;BME280;33753;52.912;-7.342;2022-08-01T00:52:06;100651.06;;;10.64;100.00
47985;BME280;33753;52.912;-7.342;2022-08-01T00:54:36;100653.75;;;10.64;100.00
47985;BME280;33753;52.912;-7.342;2022-08-01T00:57:04;100652.59;;;10.66;100.00
47985;BME280;33753;52.912;-7.342;2022-08-01T00:59:36;100665.94;;;10.68;100.00
47985;BME280;33753;52.912;-7.342;2022-08-01T01:02:08;100659.34;;;10.70;100.00
47985;BME280;33753;52.912;-7.342;2022-08-01T01:04:47;100654.59;;;10.72;100.00
47985;BME280;33753;52.912;-7.342;2022-08-01T01:07:16;100654.44;;;10.74;100.00
47985;BME280;33753;52.912;-7.342;2022-08-01T01:09:52;100650.72;;;10.75;100.00
47985;BME280;33753;52.912;-7.342;2022-08-01T01:12:26;100654.09;;;10.77;100.00
47985;BME280;33753;52.912;-7.342;2022-08-01T01:15:04;100660.88;;;10.81;100.00
47985;BME280;33753;52.912;-7.342;2022-08-01T01:17:38;100658.69;;;10.85;100.00
47985;BME280;33753;52.912;-7.342;2022-08-01T01:20:17;100654.81;;;10.87;100.00
47985;BME280;33753;52.912;-7.342;2022-08-01T01:22:50;100651.06;;;10.88;100.00
47985;BME280;33753;52.912;-7.342;2022-08-01T01:25:28;100643.63;;;10.91;100.00
47985;BME280;33753;52.912;-7.342;2022-08-01T01:31:03;100638.72;;;10.94;100.00
47985;BME280;33753;52.912;-7.342;2022-08-01T01:33:37;100644.81;;;10.96;100.00
47985;BME280;33753;52.912;-7.342;2022-08-01T01:36:13;100634.66;;;10.98;100.00
47985;BME280;33753;52.912;-7.342;2022-08-01T01:38:43;100628.06;;;11.01;100.00
47985;BME280;33753;52.912;-7.342;2022-08-01T01:41:13;100641.41;;;11.02;100.00
47985;BME280;33753;52.912;-7.342;2022-08-01T01:43:42;100645.81;;;11.03;100.00
47985;BME280;33753;52.912;-7.342;2022-08-01T01:46:14;100631.13;;;11.06;100.00
47985;BME280;33753;52.912;-7.342;2022-08-01T01:48:44;100632.78;;;11.07;100.00
47985;BME280;33753;52.912;-7.342;2022-08-01T01:51:13;100634.47;;;11.08;100.00
47985;BME280;33753;52.912;-7.342;2022-08-01T01:53:41;100624.31;;;11.10;100.00
47985;BME280;33753;52.912;-7.342;2022-08-01T01:56:11;100620.59;;;11.11;100.00
47985;BME280;33753;52.912;-7.342;2022-08-01T01:58:42;100623.81;;;11.15;100.00
47985;BME280;33753;52.912;-7.342;2022-08-01T02:01:12;100626.19;;;11.18;100.00
47985;BME280;33753;52.912;-7.342;2022-08-01T02:04:01;100618.53;;;11.21;100.00
47985;BME280;33753;52.912;-7.342;2022-08-01T02:06:30;100627.19;;;11.25;100.00
47985;BME280;33753;52.912;-7.342;2022-08-01T02:08:59;100623.47;;;11.26;100.00
47985;BME280;33753;52.912;-7.342;2022-08-01T02:11:29;100618.72;;;11.28;100.00
47985;BME280;33753;52.912;-7.342;2022-08-01T02:13:58;100629.38;;;11.30;100.00
47985;BME280;33753;52.912;-7.342;2022-08-01T02:16:28;100631.06;;;11.31;100.00
47985;BME280;33753;52.912;-7.342;2022-08-01T02:19:04;100629.19;;;11.31;100.00
47985;BME280;33753;52.912;-7.342;2022-08-01T02:21:35;100628.38;;;11.31;100.00
47985;BME280;33753;52.912;-7.342;2022-08-01T02:24:07;100626.66;;;11.30;100.00
47985;BME280;33753;52.912;-7.342;2022-08-01T02:26:38;100625.81;;;11.29;100.00
47985;BME280;33753;52.912;-7.342;2022-08-01T02:29:07;100616.53;;;11.23;100.00
47985;BME280;33753;52.912;-7.342;2022-08-01T02:31:39;100621.25;;;11.21;100.00
47985;BME280;33753;52.912;-7.342;2022-08-01T02:34:13;100624.31;;;11.18;100.00
47985;BME280;33753;52.912;-7.342;2022-08-01T02:36:43;100617.19;;;11.17;100.00
47985;BME280;33753;52.912;-7.342;2022-08-01T02:39:13;100623.47;;;11.18;100.00
47985;BME280;33753;52.912;-7.342;2022-08-01T02:41:42;100618.25;;;11.16;100.00
47985;BME280;33753;52.912;-7.342;2022-08-01T02:44:12;100606.72;;;11.14;100.00
47985;BME280;33753;52.912;-7.342;2022-08-01T02:49:16;100606.22;;;11.11;100.00
47985;BME280;33753;52.912;-7.342;2022-08-01T02:51:48;100604.69;;;11.08;100.00
47985;BME280;33753;52.912;-7.342;2022-08-01T02:54:19;100608.59;;;11.05;100.00
47985;BME280;33753;52.912;-7.342;2022-08-01T02:56:49;100613.53;;;11.02;100.00
47985;BME280;33753;52.912;-7.342;2022-08-01T02:59:20;100605.06;;;10.97;100.00
47985;BME280;33753;52.912;-7.342;2022-08-01T03:01:52;100595.41;;;10.94;100.00
47985;BME280;33753;52.912;-7.342;2022-08-01T03:04:23;100595.75;;;10.91;100.00
47985;BME280;33753;52.912;-7.342;2022-08-01T03:06:52;100598.81;;;10.88;100.00
47985;BME280;33753;52.912;-7.342;2022-08-01T03:09:21;100594.75;;;10.84;100.00
47985;BME280;33753;52.912;-7.342;2022-08-01T03:11:50;100592.03;;;10.84;100.00
47985;BME280;33753;52.912;-7.342;2022-08-01T03:14:18;100587.63;;;10.83;100.00
47985;BME280;33753;52.912;-7.342;2022-08-01T03:16:48;100586.78;;;10.82;100.00
47985;BME280;33753;52.912;-7.342;2022-08-01T03:19:18;100593.03;;;10.83;100.00
47985;BME280;33753;52.912;-7.342;2022-08-01T03:21:58;100596.44;;;10.85;100.00
47985;BME280;33753;52.912;-7.342;2022-08-01T03:24:34;100598.09;;;10.86;100.00
47985;BME280;33753;52.912;-7.342;2022-08-01T03:27:05;100596.94;;;10.88;100.00
47985;BME280;33753;52.912;-7.342;2022-08-01T03:29:33;100598.63;;;10.89;100.00
47985;BME280;33753;52.912;-7.342;2022-08-01T03:32:02;100592.88;;;10.93;100.00
47985;BME280;33753;52.912;-7.342;2022-08-01T03:34:31;100589.81;;;10.96;100.00
47985;BME280;33753;52.912;-7.342;2022-08-01T03:37:02;100584.75;;;11.01;100.00
47985;BME280;33753;52.912;-7.342;2022-08-01T03:39:31;100579.69;;;11.06;100.00
47985;BME280;33753;52.912;-7.342;2022-08-01T03:42:05;100578.28;;;11.10;100.00
47985;BME280;33753;52.912;-7.342;2022-08-01T03:44:34;100575.94;;;11.15;100.00
47985;BME280;33753;52.912;-7.342;2022-08-01T03:47:06;100578.97;;;11.20;100.00
47985;BME280;33753;52.912;-7.342;2022-08-01T03:49:35;100574.91;;;11.24;100.00
47985;BME280;33753;52.912;-7.342;2022-08-01T03:52:07;100569.97;;;11.28;100.00
47985;BME280;33753;52.912;-7.342;2022-08-01T03:54:38;100562.34;;;11.32;100.00
47985;BME280;33753;52.912;-7.342;2022-08-01T03:57:08;100560.13;;;11.35;100.00
47985;BME280;33753;52.912;-7.342;2022-08-01T03:59:57;100573.31;;;11.38;100.00
47985;BME280;33753;52.912;-7.342;2022-08-01T04:02:26;100572.13;;;11.41;100.00
47985;BME280;33753;52.912;-7.342;2022-08-01T04:04:55;100564.00;;;11.41;100.00
47985;BME280;33753;52.912;-7.342;2022-08-01T04:07:25;100556.53;;;11.43;100.00
47985;BME280;33753;52.912;-7.342;2022-08-01T04:09:54;100554.19;;;11.40;100.00
47985;BME280;33753;52.912;-7.342;2022-08-01T04:12:22;100565.19;;;11.38;100.00
47985;BME280;33753;52.912;-7.342;2022-08-01T04:14:50;100568.09;;;11.37;100.00
47985;BME280;33753;52.912;-7.342;2022-08-01T04:17:18;100559.31;;;11.35;100.00
47985;BME280;33753;52.912;-7.342;2022-08-01T04:19:47;100560.13;;;11.35;100.00
47985;BME280;33753;52.912;-7.342;2022-08-01T04:22:15;100551.34;;;11.33;100.00
47985;BME280;33753;52.912;-7.342;2022-08-01T04:24:46;100561.31;;;11.33;100.00
47985;BME280;33753;52.912;-7.342;2022-08-01T04:27:23;100557.59;;;11.34;100.00
47985;BME280;33753;52.912;-7.342;2022-08-01T04:30:11;100559.31;;;11.35;100.00
47985;BME280;33753;52.912;-7.342;2022-08-01T04:32:46;100564.38;;;11.38;100.00
47985;BME280;33753;52.912;-7.342;2022-08-01T04:35:16;100574.00;;;11.40;100.00
47985;BME280;33753;52.912;-7.342;2022-08-01T04:38:06;100564.66;;;11.43;100.00
47985;BME280;33753;52.912;-7.342;2022-08-01T04:40:37;100556.41;;;11.45;100.00
47985;BME280;33753;52.912;-7.342;2022-08-01T04:43:05;100550.13;;;11.44;100.00
47985;BME280;33753;52.912;-7.342;2022-08-01T04:45:34;100547.75;;;11.41;100.00
47985;BME280;33753;52.912;-7.342;2022-08-01T04:48:03;100541.88;;;11.37;100.00
47985;BME280;33753;52.912;-7.342;2022-08-01T04:50:33;100533.41;;;11.32;100.00
47985;BME280;33753;52.912;-7.342;2022-08-01T04:53:02;100538.31;;;11.29;100.00
47985;BME280;33753;52.912;-7.342;2022-08-01T04:55:31;100546.13;;;11.23;100.00
47985;BME280;33753;52.912;-7.342;2022-08-01T04:58:00;100534.97;;;11.18;100.00
47985;BME280;33753;52.912;-7.342;2022-08-01T05:00:29;100538.38;;;11.12;100.00
47985;BME280;33753;52.912;-7.342;2022-08-01T05:02:57;100543.09;;;11.10;100.00
47985;BME280;33753;52.912;-7.342;2022-08-01T05:05:25;100542.25;;;11.10;100.00
47985;BME280;33753;52.912;-7.342;2022-08-01T05:07:53;100533.13;;;11.11;100.00
47985;BME280;33753;52.912;-7.342;2022-08-01T05:10:22;100540.06;;;11.13;100.00
47985;BME280;33753;52.912;-7.342;2022-08-01T05:12:50;100549.38;;;11.19;100.00
47985;BME280;33753;52.912;-7.342;2022-08-01T05:15:20;100531.59;;;11.24;100.00
47985;BME280;33753;52.912;-7.342;2022-08-01T05:17:49;100548.81;;;11.32;100.00
47985;BME280;33753;52.912;-7.342;2022-08-01T05:20:17;100539.59;;;11.49;100.00
47985;BME280;33753;52.912;-7.342;2022-08-01T05:22:45;100538.19;;;11.62;100.00
47985;BME280;33753;52.912;-7.342;2022-08-01T05:25:13;100533.09;;;11.67;100.00
47985;BME280;33753;52.912;-7.342;2022-08-01T05:28:02;100538.16;;;11.70;100.00
47985;BME280;33753;52.912;-7.342;2022-08-01T05:30:31;100529.19;;;11.69;100.00
47985;BME280;33753;52.912;-7.342;2022-08-01T05:33:00;100531.00;;;11.77;100.00
47985;BME280;33753;52.912;-7.342;2022-08-01T05:35:28;100535.41;;;12.09;100.00
47985;BME280;33753;52.912;-7.342;2022-08-01T05:38:14;100538.97;;;12.56;100.00
47985;BME280;33753;52.912;-7.342;2022-08-01T05:40:42;100534.81;;;12.84;100.00
47985;BME280;33753;52.912;-7.342;2022-08-01T05:43:11;100535.19;;;12.95;100.00
47985;BME280;33753;52.912;-7.342;2022-08-01T05:45:40;100538.22;;;13.01;100.00
47985;BME280;33753;52.912;-7.342;2022-08-01T05:48:09;100539.72;;;13.18;100.00
47985;BME280;33753;52.912;-7.342;2022-08-01T05:50:37;100526.97;;;13.34;100.00
47985;BME280;33753;52.912;-7.342;2022-08-01T05:53:05;100528.50;;;13.51;100.00
47985;BME280;33753;52.912;-7.342;2022-08-01T05:55:34;100523.34;;;13.93;100.00
47985;BME280;33753;52.912;-7.342;2022-08-01T05:58:02;100530.44;;;14.52;100.00
47985;BME280;33753;52.912;-7.342;2022-08-01T06:00:31;100535.56;;;15.18;100.00
47985;BME280;33753;52.912;-7.342;2022-08-01T06:03:00;100528.75;;;15.84;100.00
47985;BME280;33753;52.912;-7.342;2022-08-01T06:05:28;100523.03;;;16.48;100.00
47985;BME280;33753;52.912;-7.342;2022-08-01T06:07:56;100510.81;;;17.10;100.00
47985;BME280;33753;52.912;-7.342;2022-08-01T06:10:25;100514.41;;;17.70;100.00
47985;BME280;33753;52.912;-7.342;2022-08-01T06:12:53;100496.41;;;18.26;100.00
47985;BME280;33753;52.912;-7.342;2022-08-01T06:15:21;100492.81;;;18.82;100.00
47985;BME280;33753;52.912;-7.342;2022-08-01T06:17:49;100493.00;;;19.43;100.00
47985;BME280;33753;52.912;-7.342;2022-08-01T06:20:19;100479.84;;;20.01;100.00
47985;BME280;33753;52.912;-7.342;2022-08-01T06:22:48;100479.69;;;20.62;100.00
47985;BME280;33753;52.912;-7.342;2022-08-01T06:25:18;100470.03;;;21.18;100.00
47985;BME280;33753;52.912;-7.342;2022-08-01T06:27:47;100455.66;;;21.69;100.00
47985;BME280;33753;52.912;-7.342;2022-08-01T06:34:22;100445.22;;;22.46;100.00
47985;BME280;33753;52.912;-7.342;2022-08-01T06:36:52;100452.72;;;22.33;100.00
47985;BME280;33753;52.912;-7.342;2022-08-01T06:39:20;100440.13;;;21.91;100.00
47985;BME280;33753;52.912;-7.342;2022-08-01T06:41:49;100439.44;;;21.55;100.00
47985;BME280;33753;52.912;-7.342;2022-08-01T06:44:17;100441.69;;;21.06;100.00
47985;BME280;33753;52.912;-7.342;2022-08-01T06:46:45;100446.38;;;20.82;100.00
47985;BME280;33753;52.912;-7.342;2022-08-01T06:49:13;100448.03;;;20.47;100.00
47985;BME280;33753;52.912;-7.342;2022-08-01T06:51:42;100445.47;;;20.10;100.00
47985;BME280;33753;52.912;-7.342;2022-08-01T06:54:11;100440.19;;;19.97;100.00
47985;BME280;33753;52.912;-7.342;2022-08-01T06:56:39;100439.31;;;19.66;100.00
47985;BME280;33753;52.912;-7.342;2022-08-01T06:59:08;100448.19;;;19.68;100.00
47985;BME280;33753;52.912;-7.342;2022-08-01T07:01:37;100447.53;;;20.15;100.00
47985;BME280;33753;52.912;-7.342;2022-08-01T07:04:06;100440.78;;;20.88;100.00
47985;BME280;33753;52.912;-7.342;2022-08-01T07:06:34;100445.22;;;21.30;100.00
47985;BME280;33753;52.912;-7.342;2022-08-01T07:09:02;100452.03;;;21.51;100.00
47985;BME280;33753;52.912;-7.342;2022-08-01T07:11:40;100448.16;;;21.64;100.00
47985;BME280;33753;52.912;-7.342;2022-08-01T07:14:09;100447.31;;;21.64;100.00
47985;BME280;33753;52.912;-7.342;2022-08-01T07:16:37;100446.63;;;21.56;100.00
47985;BME280;33753;52.912;-7.342;2022-08-01T07:19:05;100445.03;;;21.20;100.00
47985;BME280;33753;52.912;-7.342;2022-08-01T07:21:33;100443.38;;;20.60;100.00
47985;BME280;33753;52.912;-7.342;2022-08-01T07:24:07;100444.69;;;20.45;100.00
47985;BME280;33753;52.912;-7.342;2022-08-01T07:26:42;100444.59;;;20.64;100.00
47985;BME280;33753;52.912;-7.342;2022-08-01T07:29:21;100434.06;;;21.08;100.00
47985;BME280;33753;52.912;-7.342;2022-08-01T07:31:49;100428.22;;;21.45;100.00
47985;BME280;33753;52.912;-7.342;2022-08-01T07:34:18;100433.16;;;22.01;100.00
47985;BME280;33753;52.912;-7.342;2022-08-01T07:36:46;100417.38;;;22.47;100.00
47985;BME280;33753;52.912;-7.342;2022-08-01T07:39:14;100420.84;;;22.93;100.00
47985;BME280;33753;52.912;-7.342;2022-08-01T07:41:43;100417.63;;;23.46;100.00
47985;BME280;33753;52.912;-7.342;2022-08-01T07:44:32;100411.78;;;24.24;100.00
47985;BME280;33753;52.912;-7.342;2022-08-01T07:47:00;100417.13;;;24.69;100.00
47985;BME280;33753;52.912;-7.342;2022-08-01T07:49:28;100414.66;;;25.30;100.00
47985;BME280;33753;52.912;-7.342;2022-08-01T07:52:02;100414.25;;;25.80;100.00
47985;BME280;33753;52.912;-7.342;2022-08-01T07:54:30;100402.13;;;26.17;100.00
47985;BME280;33753;52.912;-7.342;2022-08-01T07:57:02;100401.50;;;26.87;100.00
47985;BME280;33753;52.912;-7.342;2022-08-01T07:59:31;100395.69;;;26.78;100.00
47985;BME280;33753;52.912;-7.342;2022-08-01T08:01:59;100387.44;;;27.28;100.00
47985;BME280;33753;52.912;-7.342;2022-08-01T08:04:27;100389.09;;;27.34;100.00
47985;BME280;33753;52.912;-7.342;2022-08-01T08:06:55;100391.25;;;27.48;100.00
47985;BME280;33753;52.912;-7.342;2022-08-01T08:09:24;100394.34;;;27.81;100.00
47985;BME280;33753;52.912;-7.342;2022-08-01T08:11:52;100388.97;;;27.94;100.00
47985;BME280;33753;52.912;-7.342;2022-08-01T08:14:22;100397.41;;;28.24;100.00
47985;BME280;33753;52.912;-7.342;2022-08-01T08:16:58;100403.56;;;28.79;100.00
47985;BME280;33753;52.912;-7.342;2022-08-01T08:19:28;100403.03;;;28.14;100.00
47985;BME280;33753;52.912;-7.342;2022-08-01T08:22:04;100408.34;;;28.10;100.00
47985;BME280;33753;52.912;-7.342;2022-08-01T08:24:33;100398.78;;;27.87;100.00
47985;BME280;33753;52.912;-7.342;2022-08-01T08:27:11;100390.53;;;27.16;100.00
47985;BME280;33753;52.912;-7.342;2022-08-01T08:29:41;100396.28;;;26.13;100.00
47985;BME280;33753;52.912;-7.342;2022-08-01T08:32:10;100390.56;;;25.31;100.00
47985;BME280;33753;52.912;-7.342;2022-08-01T08:34:39;100393.84;;;24.64;100.00
47985;BME280;33753;52.912;-7.342;2022-08-01T08:37:07;100391.66;;;24.66;100.00
47985;BME280;33753;52.912;-7.342;2022-08-01T08:39:35;100400.28;;;24.38;100.00
47985;BME280;33753;52.912;-7.342;2022-08-01T08:42:08;100406.78;;;24.21;100.00
47985;BME280;33753;52.912;-7.342;2022-08-01T08:44:36;100397.84;;;24.09;100.00
47985;BME280;33753;52.912;-7.342;2022-08-01T08:47:12;100389.25;;;23.78;100.00
47985;BME280;33753;52.912;-7.342;2022-08-01T08:49:46;100388.88;;;23.42;100.00
47985;BME280;33753;52.912;-7.342;2022-08-01T08:52:15;100392.16;;;23.88;100.00
47985;BME280;33753;52.912;-7.342;2022-08-01T08:54:46;100379.78;;;23.96;100.00
47985;BME280;33753;52.912;-7.342;2022-08-01T08:57:14;100376.19;;;23.95;100.00
47985;BME280;33753;52.912;-7.342;2022-08-01T08:59:42;100370.34;;;24.24;100.00
47985;BME280;33753;52.912;-7.342;2022-08-01T09:02:12;100371.28;;;24.03;100.00
47985;BME280;33753;52.912;-7.342;2022-08-01T09:04:40;100359.72;;;24.48;100.00
47985;BME280;33753;52.912;-7.342;2022-08-01T09:07:09;100371.78;;;24.70;100.00
47985;BME280;33753;52.912;-7.342;2022-08-01T09:09:38;100359.00;;;24.63;100.00
47985;BME280;33753;52.912;-7.342;2022-08-01T09:12:07;100348.09;;;24.46;100.00
47985;BME280;33753;52.912;-7.342;2022-08-01T09:14:43;100353.25;;;24.32;100.00
47985;BME280;33753;52.912;-7.342;2022-08-01T09:17:13;100361.38;;;24.07;100.00
47985;BME280;33753;52.912;-7.342;2022-08-01T09:19:43;100356.97;;;24.11;100.00
47985;BME280;33753;52.912;-7.342;2022-08-01T09:22:13;100352.41;;;23.94;100.00
47985;BME280;33753;52.912;-7.342;2022-08-01T09:24:56;100344.38;;;23.93;100.00
47985;BME280;33753;52.912;-7.342;2022-08-01T09:27:25;100343.16;;;23.51;100.00
47985;BME280;33753;52.912;-7.342;2022-08-01T09:29:54;100336.38;;;23.37;100.00
47985;BME280;33753;52.912;-7.342;2022-08-01T09:32:31;100336.06;;;23.33;100.00
47985;BME280;33753;52.912;-7.342;2022-08-01T09:37:45;100332.38;;;23.50;100.00
47985;BME280;33753;52.912;-7.342;2022-08-01T09:40:14;100330.53;;;23.33;100.00
47985;BME280;33753;52.912;-7.342;2022-08-01T09:42:42;100328.81;;;23.05;100.00
47985;BME280;33753;52.912;-7.342;2022-08-01T09:48:09;100322.22;;;22.61;100.00
47985;BME280;33753;52.912;-7.342;2022-08-01T09:50:39;100317.22;;;22.58;100.00
47985;BME280;33753;52.912;-7.342;2022-08-01T09:53:08;100316.47;;;22.46;100.00
47985;BME280;33753;52.912;-7.342;2022-08-01T09:55:55;100323.78;;;22.18;100.00
47985;BME280;33753;52.912;-7.342;2022-08-01T10:01:27;100319.03;;;21.97;100.00
47985;BME280;33753;52.912;-7.342;2022-08-01T10:04:08;100313.38;;;21.86;100.00
47985;BME280;33753;52.912;-7.342;2022-08-01T10:06:37;100317.63;;;21.77;100.00
47985;BME280;33753;52.912;-7.342;2022-08-01T10:09:07;100322.34;;;21.65;100.00
47985;BME280;33753;52.912;-7.342;2022-08-01T10:11:36;100317.59;;;21.31;100.00
47985;BME280;33753;52.912;-7.342;2022-08-01T10:14:06;100313.22;;;21.47;100.00
47985;BME280;33753;52.912;-7.342;2022-08-01T10:16:35;100316.34;;;21.39;100.00
47985;BME280;33753;52.912;-7.342;2022-08-01T10:19:05;100318.94;;;21.29;100.00
47985;BME280;33753;52.912;-7.342;2022-08-01T10:21:42;100320.75;;;21.23;100.00
47985;BME280;33753;52.912;-7.342;2022-08-01T10:24:25;100328.06;;;21.17;100.00
47985;BME280;33753;52.912;-7.342;2022-08-01T10:26:55;100323.06;;;21.14;100.00
47985;BME280;33753;52.912;-7.342;2022-08-01T10:29:25;100319.06;;;20.93;100.00
47985;BME280;33753;52.912;-7.342;2022-08-01T10:32:14;100326.00;;;20.96;100.00
47985;BME280;33753;52.912;-7.342;2022-08-01T10:34:42;100327.84;;;20.78;100.00
47985;BME280;33753;52.912;-7.342;2022-08-01T10:37:12;100327.34;;;20.81;100.00
47985;BME280;33753;52.912;-7.342;2022-08-01T10:39:41;100330.31;;;20.92;100.00
47985;BME280;33753;52.912;-7.342;2022-08-01T10:42:11;100332.72;;;20.88;100.00
47985;BME280;33753;52.912;-7.342;2022-08-01T10:44:41;100328.66;;;20.91;100.00
47985;BME280;33753;52.912;-7.342;2022-08-01T10:47:15;100326.59;;;20.98;100.00
47985;BME280;33753;52.912;-7.342;2022-08-01T10:49:53;100334.41;;;20.77;100.00
47985;BME280;33753;52.912;-7.342;2022-08-01T10:52:27;100331.69;;;20.53;100.00
47985;BME280;33753;52.912;-7.342;2022-08-01T10:55:01;100335.75;;;20.27;100.00
47985;BME280;33753;52.912;-7.342;2022-08-01T10:57:40;100324.88;;;19.97;100.00
47985;BME280;33753;52.912;-7.342;2022-08-01T11:00:19;100330.44;;;19.78;100.00
47985;BME280;33753;52.912;-7.342;2022-08-01T11:02:57;100340.53;;;19.66;100.00
47985;BME280;33753;52.912;-7.342;2022-08-01T11:05:30;100342.22;;;19.67;100.00
47985;BME280;33753;52.912;-7.342;2022-08-01T11:08:03;100338.56;;;19.43;100.00
47985;BME280;33753;52.912;-7.342;2022-08-01T11:10:32;100340.00;;;19.45;100.00
47985;BME280;33753;52.912;-7.342;2022-08-01T11:13:05;100317.06;;;19.28;100.00
47985;BME280;33753;52.912;-7.342;2022-08-01T11:15:37;100329.13;;;19.39;100.00
47985;BME280;33753;52.912;-7.342;2022-08-01T11:18:29;100323.00;;;19.55;100.00
47985;BME280;33753;52.912;-7.342;2022-08-01T11:20:59;100315.25;;;19.64;100.00
47985;BME280;33753;52.912;-7.342;2022-08-01T11:23:49;100304.63;;;19.67;100.00
47985;BME280;33753;52.912;-7.342;2022-08-01T11:26:18;100296.81;;;19.83;100.00
47985;BME280;33753;52.912;-7.342;2022-08-01T11:29:12;100287.84;;;19.88;100.00
47985;BME280;33753;52.912;-7.342;2022-08-01T11:31:47;100272.59;;;20.15;100.00
47985;BME280;33753;52.912;-7.342;2022-08-01T11:34:16;100271.97;;;20.37;100.00
47985;BME280;33753;52.912;-7.342;2022-08-01T11:36:45;100282.81;;;20.55;100.00
47985;BME280;33753;52.912;-7.342;2022-08-01T11:39:32;100272.63;;;20.56;100.00
47985;BME280;33753;52.912;-7.342;2022-08-01T11:42:17;100261.25;;;20.76;100.00
47985;BME280;33753;52.912;-7.342;2022-08-01T11:44:48;100258.72;;;20.86;100.00
47985;BME280;33753;52.912;-7.342;2022-08-01T11:47:18;100259.44;;;20.82;100.00
47985;BME280;33753;52.912;-7.342;2022-08-01T11:49:47;100252.56;;;20.67;100.00
47985;BME280;33753;52.912;-7.342;2022-08-01T11:52:26;100244.53;;;20.66;100.00
47985;BME280;33753;52.912;-7.342;2022-08-01T11:54:57;100247.44;;;20.59;100.00
47985;BME280;33753;52.912;-7.342;2022-08-01T11:57:28;100242.34;;;20.27;100.00
47985;BME280;33753;52.912;-7.342;2022-08-01T12:00:01;100249.56;;;20.16;100.00
47985;BME280;33753;52.912;-7.342;2022-08-01T12:02:41;100251.59;;;20.09;100.00
47985;BME280;33753;52.912;-7.342;2022-08-01T12:05:12;100235.56;;;20.06;100.00
47985;BME280;33753;52.912;-7.342;2022-08-01T12:07:42;100242.50;;;19.97;100.00
47985;BME280;33753;52.912;-7.342;2022-08-01T12:10:14;100241.31;;;19.93;100.00
47985;BME280;33753;52.912;-7.342;2022-08-01T12:12:44;100255.06;;;19.81;100.00
47985;BME280;33753;52.912;-7.342;2022-08-01T12:15:13;100241.44;;;19.86;100.00
47985;BME280;33753;52.912;-7.342;2022-08-01T12:17:42;100226.53;;;19.94;100.00
47985;BME280;33753;52.912;-7.342;2022-08-01T12:20:28;100231.75;;;20.07;100.00
47985;BME280;33753;52.912;-7.342;2022-08-01T12:22:58;100226.53;;;19.94;100.00
47985;BME280;33753;52.912;-7.342;2022-08-01T12:25:29;100227.19;;;19.77;100.00
47985;BME280;33753;52.912;-7.342;2022-08-01T12:28:02;100221.47;;;19.67;100.00
47985;BME280;33753;52.912;-7.342;2022-08-01T12:30:30;100226.13;;;19.66;100.00
47985;BME280;33753;52.912;-7.342;2022-08-01T12:33:03;100226.59;;;19.51;100.00
47985;BME280;33753;52.912;-7.342;2022-08-01T12:35:35;100219.78;;;19.42;100.00
47985;BME280;33753;52.912;-7.342;2022-08-01T12:38:05;100215.25;;;19.48;100.00
47985;BME280;33753;52.912;-7.342;2022-08-01T12:40:36;100205.69;;;19.39;100.00
47985;BME280;33753;52.912;-7.342;2022-08-01T12:43:15;100219.97;;;19.29;100.00
47985;BME280;33753;52.912;-7.342;2022-08-01T12:45:55;100213.03;;;19.14;100.00
47985;BME280;33753;52.912;-7.342;2022-08-01T12:48:25;100207.91;;;19.06;100.00
47985;BME280;33753;52.912;-7.342;2022-08-01T12:50:54;100226.63;;;19.09;100.00
47985;BME280;33753;52.912;-7.342;2022-08-01T12:53:25;100215.84;;;18.96;100.00
47985;BME280;33753;52.912;-7.342;2022-08-01T12:56:09;100223.47;;;18.94;100.00
47985;BME280;33753;52.912;-7.342;2022-08-01T12:58:38;100215.03;;;18.95;100.00
47985;BME280;33753;52.912;-7.342;2022-08-01T13:01:08;100223.94;;;18.91;100.00
47985;BME280;33753;52.912;-7.342;2022-08-01T13:03:38;100223.47;;;18.94;100.00
47985;BME280;33753;52.912;-7.342;2022-08-01T13:06:11;100227.78;;;18.83;100.00
47985;BME280;33753;52.912;-7.342;2022-08-01T13:08:44;100223.63;;;18.80;100.00
47985;BME280;33753;52.912;-7.342;2022-08-01T13:11:16;100228.69;;;18.65;100.00